Time;durP1;ratioP1;P1;durP2;ratioP2;P2;SDS_P1;SDS_P2;PMS_P1;PMS_P2;Temp;Humidity;BMP_temperature;BMP_pressure;BME280_temperature;BME280_humidity;BME280_pressure;Samples;Min_cycle;Max_cycle;Signal;HPM_P1;HPM_P2
2021/10/17 00:00:18;;;;;;;9.80;1.50;;;27.90;91.40;;;;;;5084357;28;20200;-50
2021/10/17 00:02:46;;;;;;;78.82;8.18;;;27.90;91.40;;;;;;5083667;28;20013;-48
2021/10/17 00:05:13;;;;;;;102.60;8.50;;;27.90;91.40;;;;;;5084350;28;20024;-46
2021/10/17 00:07:40;;;;;;;91.10;7.15;;;27.90;91.50;;;;;;5083862;28;20137;-54
2021/10/17 00:10:11;;;;;;;78.00;8.00;;;27.90;91.40;;;;;;5083681;28;20074;-50
2021/10/17 00:12:39;;;;;;;47.65;5.80;;;27.90;91.30;;;;;;5083692;28;20021;-52
2021/10/17 00:15:11;;;;;;;43.40;5.05;;;28.00;91.30;;;;;;5083497;28;20025;-54
2021/10/17 00:17:41;;;;;;;36.38;5.18;;;27.90;91.40;;;;;;5083974;28;20027;-55
2021/10/17 00:20:10;;;;;;;26.50;5.57;;;27.90;91.60;;;;;;5083118;28;20252;-54
2021/10/17 00:22:38;;;;;;;15.43;5.07;;;27.80;91.60;;;;;;5081483;28;20044;-57
2021/10/17 00:25:07;;;;;;;15.68;4.10;;;27.80;91.80;;;;;;5083320;28;20073;-56
2021/10/17 00:27:34;;;;;;;11.35;5.30;;;27.80;91.60;;;;;;5078137;28;20063;-55
2021/10/17 00:30:00;;;;;;;15.90;8.15;;;27.70;91.80;;;;;;5077612;28;20078;-56
2021/10/17 00:32:31;;;;;;;19.58;9.90;;;27.60;92.00;;;;;;5083770;28;20012;-52
2021/10/17 00:35:02;;;;;;;16.50;9.05;;;27.60;92.10;;;;;;5081975;28;20031;-54
2021/10/17 00:37:29;;;;;;;12.93;6.80;;;27.40;92.20;;;;;;5076041;28;20054;-57
2021/10/17 00:39:56;;;;;;;9.25;5.82;;;27.30;92.20;;;;;;5081799;28;20020;-61
2021/10/17 00:42:23;;;;;;;9.00;4.13;;;27.30;92.40;;;;;;5083377;28;20017;-51
2021/10/17 00:45:01;;;;;;;10.00;4.10;;;27.30;92.50;;;;;;5084014;28;20024;-52
2021/10/17 00:47:28;;;;;;;8.82;3.70;;;27.30;92.50;;;;;;5077417;28;20194;-53
2021/10/17 00:49:55;;;;;;;4.72;2.72;;;27.30;92.50;;;;;;5083668;28;20029;-49
2021/10/17 00:52:22;;;;;;;4.93;3.30;;;27.30;92.40;;;;;;5083430;28;20027;-50
2021/10/17 00:54:49;;;;;;;6.78;3.13;;;27.40;92.30;;;;;;5083809;28;20066;-56
2021/10/17 00:57:17;;;;;;;14.18;3.50;;;27.40;92.40;;;;;;5083284;28;20027;-55
2021/10/17 00:59:48;;;;;;;11.60;3.40;;;27.30;92.40;;;;;;5082435;28;20236;-60
2021/10/17 01:02:15;;;;;;;4.63;2.63;;;27.40;92.50;;;;;;5082559;28;20027;-60
2021/10/17 01:04:42;;;;;;;6.18;2.88;;;27.40;92.40;;;;;;5083383;28;20277;-54
2021/10/17 01:07:10;;;;;;;9.48;4.50;;;27.30;92.30;;;;;;5087112;28;20017;-59
2021/10/17 01:09:38;;;;;;;9.02;4.50;;;27.40;92.30;;;;;;5086979;28;20027;-57
2021/10/17 01:12:06;;;;;;;6.15;3.65;;;27.30;92.40;;;;;;5087009;28;20024;-58
2021/10/17 01:14:33;;;;;;;8.00;5.18;;;27.30;92.60;;;;;;5087534;28;20095;-55
2021/10/17 01:17:00;;;;;;;14.02;8.82;;;27.30;92.50;;;;;;5085604;28;20024;-54
2021/10/17 01:19:27;;;;;;;17.05;9.15;;;27.30;92.40;;;;;;5083336;28;20301;-58
2021/10/17 01:21:54;;;;;;;12.05;5.57;;;27.20;92.50;;;;;;5082695;28;20066;-58
2021/10/17 01:24:21;;;;;;;10.90;4.57;;;27.20;92.40;;;;;;5087345;28;20032;-56
2021/10/17 01:26:48;;;;;;;9.98;4.07;;;27.20;92.50;;;;;;5068639;28;20321;-62
2021/10/17 01:29:15;;;;;;;9.93;3.60;;;27.20;92.60;;;;;;5081093;28;20032;-57
2021/10/17 01:31:51;;;;;;;7.53;3.80;;;27.30;92.80;;;;;;5086509;28;20021;-56
2021/10/17 01:34:21;;;;;;;9.10;4.82;;;27.30;92.40;;;;;;5085372;28;20020;-61
2021/10/17 01:36:49;;;;;;;9.45;5.90;;;27.30;92.40;;;;;;5085286;28;20055;-57
2021/10/17 01:39:19;;;;;;;8.93;5.20;;;27.30;92.30;;;;;;5086788;28;20025;-56
2021/10/17 01:41:45;;;;;;;7.38;5.03;;;27.30;92.20;;;;;;5085395;28;20024;-56
2021/10/17 01:44:16;;;;;;;5.85;4.50;;;27.30;92.10;;;;;;5086706;28;20024;-56
2021/10/17 01:46:43;;;;;;;9.15;4.88;;;27.30;92.10;;;;;;5084612;28;20008;-58
2021/10/17 01:49:14;;;;;;;13.18;5.05;;;27.40;92.10;;;;;;5084961;28;20304;-56
2021/10/17 01:51:41;;;;;;;8.40;3.38;;;27.30;92.00;;;;;;5084789;28;20224;-54
2021/10/17 01:54:08;;;;;;;6.20;2.90;;;27.40;92.00;;;;;;5085522;28;20033;-58
2021/10/17 01:56:36;;;;;;;7.15;2.63;;;27.40;91.90;;;;;;5086337;28;20020;-57
2021/10/17 01:59:03;;;;;;;5.82;2.10;;;27.40;91.80;;;;;;5086545;28;20101;-58
2021/10/17 02:01:30;;;;;;;5.97;2.63;;;27.30;91.80;;;;;;5084951;28;20046;-53
2021/10/17 02:04:00;;;;;;;6.32;2.20;;;27.30;92.00;;;;;;5086335;28;20023;-56
2021/10/17 02:06:27;;;;;;;6.45;2.00;;;27.30;91.90;;;;;;5086518;28;20040;-56
2021/10/17 02:08:55;;;;;;;7.80;2.13;;;27.30;91.90;;;;;;5086011;28;20055;-54
2021/10/17 02:11:21;;;;;;;6.25;1.98;;;27.30;91.90;;;;;;5086381;28;20312;-57
2021/10/17 02:13:48;;;;;;;6.90;2.08;;;27.30;91.90;;;;;;5086464;28;20024;-58
2021/10/17 02:16:15;;;;;;;8.45;2.30;;;27.30;91.90;;;;;;5085992;28;20042;-54
2021/10/17 02:18:43;;;;;;;12.30;2.13;;;27.30;92.00;;;;;;5086196;28;20041;-58
2021/10/17 02:21:10;;;;;;;4.90;1.70;;;27.30;92.10;;;;;;5085735;28;20058;-57
2021/10/17 02:23:38;;;;;;;11.13;2.10;;;27.30;92.10;;;;;;5084432;28;20095;-58
2021/10/17 02:26:06;;;;;;;5.65;1.77;;;27.30;92.00;;;;;;5084682;28;20038;-55
2021/10/17 02:28:32;;;;;;;7.15;1.75;;;27.30;91.90;;;;;;5085552;28;20386;-57
2021/10/17 02:31:00;;;;;;;9.35;1.70;;;27.30;91.90;;;;;;5085527;28;20036;-56
2021/10/17 02:33:27;;;;;;;3.38;1.55;;;27.30;92.00;;;;;;5085611;28;20247;-56
2021/10/17 02:35:54;;;;;;;6.03;1.52;;;27.30;92.00;;;;;;5085503;28;20032;-57
2021/10/17 02:38:20;;;;;;;4.15;1.50;;;27.30;91.90;;;;;;5085162;28;20025;-57
2021/10/17 02:40:47;;;;;;;5.85;2.80;;;27.20;91.90;;;;;;5085547;28;20021;-57
2021/10/17 02:43:14;;;;;;;19.95;12.40;;;27.30;92.00;;;;;;5085506;28;20016;-57
2021/10/17 02:45:40;;;;;;;18.42;12.18;;;27.30;92.00;;;;;;5085108;28;20028;-57
2021/10/17 02:48:07;;;;;;;15.45;9.93;;;27.20;92.00;;;;;;5084100;28;20232;-57
2021/10/17 02:50:33;;;;;;;39.28;30.48;;;27.20;92.00;;;;;;5085182;28;20091;-56
2021/10/17 02:53:00;;;;;;;43.55;35.40;;;27.20;92.00;;;;;;5085060;28;20012;-57
2021/10/17 02:55:27;;;;;;;85.15;76.07;;;27.20;92.00;;;;;;5085205;28;20036;-58
2021/10/17 02:57:54;;;;;;;71.10;62.50;;;27.20;92.00;;;;;;5084914;28;20025;-61
2021/10/17 03:00:21;;;;;;;77.40;69.05;;;27.20;92.20;;;;;;5085212;28;20208;-52
2021/10/17 03:02:48;;;;;;;56.22;49.83;;;27.20;92.00;;;;;;5085334;28;20016;-58
2021/10/17 03:05:15;;;;;;;40.40;35.45;;;27.20;92.00;;;;;;5085651;28;20259;-56
2021/10/17 03:07:41;;;;;;;30.52;24.13;;;27.20;91.90;;;;;;5085239;28;20239;-55
2021/10/17 03:10:09;;;;;;;28.88;24.08;;;27.20;91.90;;;;;;5084872;28;20020;-56
2021/10/17 03:12:35;;;;;;;23.38;18.67;;;27.20;91.90;;;;;;5083846;28;20078;-56
2021/10/17 03:15:04;;;;;;;21.05;14.15;;;27.10;91.80;;;;;;5085201;28;20044;-56
2021/10/17 03:17:31;;;;;;;17.15;11.00;;;27.10;91.90;;;;;;5084428;28;20349;-58
2021/10/17 03:19:57;;;;;;;14.95;9.30;;;27.10;91.80;;;;;;5085090;28;20024;-58
2021/10/17 03:22:24;;;;;;;11.82;5.97;;;27.10;91.70;;;;;;5083506;28;20031;-55
2021/10/17 03:24:51;;;;;;;9.90;5.60;;;27.10;91.70;;;;;;5084817;28;20024;-57
2021/10/17 03:27:17;;;;;;;13.02;4.65;;;27.10;91.70;;;;;;5083824;28;20043;-56
2021/10/17 03:29:44;;;;;;;10.45;5.35;;;27.10;91.70;;;;;;5084827;28;20028;-56
2021/10/17 03:32:11;;;;;;;11.65;4.72;;;27.10;91.80;;;;;;5084267;28;20020;-54
2021/10/17 03:34:38;;;;;;;11.40;4.20;;;27.00;91.90;;;;;;5084822;28;20056;-57
2021/10/17 03:37:04;;;;;;;9.85;4.25;;;27.00;91.90;;;;;;5084269;28;20016;-57
2021/10/17 03:39:31;;;;;;;5.25;3.50;;;27.00;91.80;;;;;;5084074;28;20024;-55
2021/10/17 03:41:57;;;;;;;6.63;3.22;;;27.00;91.80;;;;;;5084208;28;20016;-56
2021/10/17 03:44:24;;;;;;;8.43;2.42;;;27.00;91.80;;;;;;5084620;28;20047;-56
2021/10/17 03:46:51;;;;;;;10.43;2.47;;;27.00;91.70;;;;;;5084161;28;20027;-58
2021/10/17 03:49:17;;;;;;;10.48;2.47;;;27.00;91.70;;;;;;5084565;28;20035;-57
2021/10/17 03:51:44;;;;;;;7.03;2.20;;;27.00;91.80;;;;;;5084193;28;20016;-57
2021/10/17 03:54:11;;;;;;;9.95;2.38;;;27.00;91.80;;;;;;5084366;28;20066;-57
2021/10/17 03:56:37;;;;;;;19.25;4.20;;;27.00;91.80;;;;;;5084150;28;20021;-53
2021/10/17 03:59:04;;;;;;;23.13;4.45;;;27.00;91.80;;;;;;5084301;28;20028;-57
2021/10/17 04:01:30;;;;;;;12.98;3.30;;;27.00;91.70;;;;;;5083879;28;20208;-58
2021/10/17 04:03:57;;;;;;;15.40;2.80;;;27.00;91.70;;;;;;5084196;28;20048;-58
2021/10/17 04:06:24;;;;;;;20.10;2.20;;;26.90;91.70;;;;;;5084056;28;20020;-55
2021/10/17 04:08:50;;;;;;;16.50;2.85;;;27.00;91.70;;;;;;5084133;28;20028;-58
2021/10/17 04:11:17;;;;;;;7.90;2.00;;;26.90;91.70;;;;;;5083921;28;20073;-58
2021/10/17 04:13:43;;;;;;;11.38;1.80;;;26.90;91.70;;;;;;5083997;28;20100;-56
2021/10/17 04:16:10;;;;;;;11.23;2.35;;;26.90;91.70;;;;;;5083632;28;20013;-57
2021/10/17 04:18:37;;;;;;;17.90;2.40;;;26.90;91.80;;;;;;5083863;28;20340;-55
2021/10/17 04:21:04;;;;;;;13.63;1.98;;;26.90;91.80;;;;;;5083896;28;20044;-56
2021/10/17 04:23:31;;;;;;;23.63;2.47;;;26.90;91.70;;;;;;5083834;28;20020;-57
2021/10/17 04:25:57;;;;;;;25.05;2.35;;;26.90;91.80;;;;;;5083839;28;20028;-58
2021/10/17 04:28:24;;;;;;;23.17;2.30;;;26.90;91.90;;;;;;5083753;28;20259;-56
2021/10/17 04:30:50;;;;;;;21.17;1.90;;;26.90;91.90;;;;;;5083741;28;20024;-54
2021/10/17 04:33:17;;;;;;;45.70;3.45;;;26.90;91.90;;;;;;5083901;28;20020;-56
2021/10/17 04:35:44;;;;;;;50.90;4.15;;;26.90;91.90;;;;;;5083653;28;20031;-57
2021/10/17 04:38:12;;;;;;;32.15;3.42;;;26.90;91.90;;;;;;5084159;28;20047;-57
2021/10/17 04:40:41;;;;;;;34.03;3.70;;;26.90;91.90;;;;;;5087590;28;20360;-56
2021/10/17 04:43:07;;;;;;;33.50;2.72;;;26.80;91.80;;;;;;5087618;28;20415;-56
2021/10/17 04:45:37;;;;;;;18.02;2.17;;;26.80;91.90;;;;;;5087586;28;20087;-56
2021/10/17 04:48:06;;;;;;;13.02;1.80;;;26.80;91.90;;;;;;5087474;28;20025;-55
2021/10/17 04:50:32;;;;;;;13.75;1.58;;;26.90;91.90;;;;;;5087478;28;20096;-57
2021/10/17 04:52:59;;;;;;;8.77;1.25;;;26.80;91.90;;;;;;5087237;28;20212;-56
2021/10/17 04:55:26;;;;;;;10.57;1.30;;;26.80;92.00;;;;;;5087519;28;20024;-58
2021/10/17 04:57:52;;;;;;;9.02;1.60;;;26.80;92.00;;;;;;5087177;28;20070;-57
2021/10/17 05:00:19;;;;;;;10.77;1.38;;;26.80;92.10;;;;;;5087275;28;20013;-55
2021/10/17 05:02:45;;;;;;;11.57;1.38;;;26.80;92.10;;;;;;5087279;28;20018;-57
2021/10/17 05:05:12;;;;;;;13.60;1.70;;;26.80;92.00;;;;;;5087632;28;20028;-61
2021/10/17 05:07:39;;;;;;;11.40;1.85;;;26.80;92.00;;;;;;5087091;28;20024;-57
2021/10/17 05:10:06;;;;;;;13.73;1.92;;;26.80;92.00;;;;;;5086849;28;20036;-54
2021/10/17 05:12:33;;;;;;;13.98;1.50;;;26.80;92.00;;;;;;5087088;28;20028;-58
2021/10/17 05:14:59;;;;;;;7.72;1.30;;;26.80;92.10;;;;;;5087444;28;20304;-55
2021/10/17 05:17:26;;;;;;;12.05;1.52;;;26.80;92.10;;;;;;5086656;28;20065;-60
2021/10/17 05:19:52;;;;;;;8.05;1.40;;;26.80;92.10;;;;;;5087353;28;20047;-58
2021/10/17 05:22:19;;;;;;;12.85;1.77;;;26.80;92.10;;;;;;5086866;28;20024;-56
2021/10/17 05:24:46;;;;;;;8.23;1.58;;;26.80;92.10;;;;;;5087127;28;20028;-58
2021/10/17 05:27:12;;;;;;;8.20;1.55;;;26.80;92.20;;;;;;5086782;28;20098;-58
2021/10/17 05:29:39;;;;;;;8.95;1.48;;;26.80;92.20;;;;;;5087200;28;20032;-58
2021/10/17 05:32:06;;;;;;;5.63;0.93;;;26.80;92.30;;;;;;5086554;28;20017;-57
2021/10/17 05:34:32;;;;;;;3.17;1.00;;;26.80;92.30;;;;;;5087001;28;20159;-57
2021/10/17 05:36:59;;;;;;;5.28;1.25;;;26.80;92.20;;;;;;5086547;28;20024;-57
2021/10/17 05:39:26;;;;;;;6.18;1.17;;;26.80;92.20;;;;;;5086756;28;20304;-58
2021/10/17 05:41:52;;;;;;;8.82;1.60;;;26.80;92.30;;;;;;5086571;28;20020;-58
2021/10/17 05:44:19;;;;;;;9.65;1.00;;;26.80;92.30;;;;;;5086773;28;20083;-55
2021/10/17 05:46:46;;;;;;;7.03;0.80;;;26.80;92.30;;;;;;5086386;28;20039;-59
2021/10/17 05:49:12;;;;;;;5.63;0.75;;;26.80;92.30;;;;;;5086241;28;20024;-58
2021/10/17 05:51:39;;;;;;;5.65;0.90;;;26.80;92.30;;;;;;5086384;28;20083;-56
2021/10/17 05:54:05;;;;;;;4.03;0.90;;;26.70;92.30;;;;;;5086115;28;20025;-57
2021/10/17 05:56:32;;;;;;;7.15;1.30;;;26.70;92.30;;;;;;5086133;28;20024;-57
2021/10/17 05:58:58;;;;;;;9.63;3.40;;;26.80;92.30;;;;;;5086356;28;20095;-60
2021/10/17 06:01:25;;;;;;;9.77;3.67;;;26.80;92.40;;;;;;5086042;28;20020;-57
2021/10/17 06:03:51;;;;;;;8.05;3.25;;;26.70;92.40;;;;;;5086473;28;20091;-56
2021/10/17 06:06:18;;;;;;;9.68;2.60;;;26.80;92.30;;;;;;5086117;28;20020;-58
2021/10/17 06:08:46;;;;;;;7.13;2.50;;;26.80;92.30;;;;;;5086295;28;20031;-58
2021/10/17 06:11:13;;;;;;;8.13;2.03;;;26.70;92.30;;;;;;5085937;28;20039;-59
2021/10/17 06:13:40;;;;;;;5.65;1.85;;;26.70;92.20;;;;;;5086069;28;20020;-55
2021/10/17 06:16:06;;;;;;;7.15;1.67;;;26.70;92.30;;;;;;5085805;28;20043;-57
2021/10/17 06:18:33;;;;;;;4.53;1.27;;;26.70;92.40;;;;;;5085783;28;20036;-58
2021/10/17 06:21:00;;;;;;;9.23;1.50;;;26.70;92.30;;;;;;5085800;28;20012;-58
2021/10/17 06:23:27;;;;;;;8.60;1.27;;;26.70;92.30;;;;;;5085820;28;20035;-56
2021/10/17 06:25:53;;;;;;;11.18;1.80;;;26.70;92.30;;;;;;5085627;28;20058;-55
2021/10/17 06:28:20;;;;;;;7.15;1.48;;;26.70;92.30;;;;;;5085625;28;20059;-56
2021/10/17 06:30:46;;;;;;;6.65;1.20;;;26.70;92.30;;;;;;5085578;28;20101;-57
2021/10/17 06:33:13;;;;;;;10.75;1.65;;;26.70;92.30;;;;;;5085476;28;20028;-57
2021/10/17 06:35:40;;;;;;;8.38;1.35;;;26.70;92.30;;;;;;5085536;28;20024;-57
2021/10/17 06:38:06;;;;;;;6.35;1.77;;;26.70;92.30;;;;;;5085396;28;20122;-55
2021/10/17 06:40:33;;;;;;;12.05;1.70;;;26.60;92.40;;;;;;5085242;28;20382;-55
2021/10/17 06:43:00;;;;;;;7.65;1.40;;;26.60;92.40;;;;;;5085318;28;20025;-56
2021/10/17 06:45:26;;;;;;;7.85;1.20;;;26.60;92.50;;;;;;5085204;28;20012;-57
2021/10/17 06:47:53;;;;;;;6.53;1.10;;;26.60;92.50;;;;;;5085315;28;20021;-55
2021/10/17 06:50:20;;;;;;;9.10;2.08;;;26.60;92.40;;;;;;5085296;28;20198;-54
2021/10/17 06:52:48;;;;;;;10.75;1.35;;;26.60;92.40;;;;;;5085416;28;20021;-56
2021/10/17 06:55:15;;;;;;;5.05;1.20;;;26.60;92.50;;;;;;5085472;28;20036;-57
2021/10/17 06:57:41;;;;;;;6.13;1.30;;;26.60;92.60;;;;;;5085069;28;20020;-59
2021/10/17 07:00:09;;;;;;;4.75;1.30;;;26.60;92.60;;;;;;5085417;28;20288;-58
2021/10/17 07:02:35;;;;;;;4.15;1.50;;;26.60;92.60;;;;;;5084158;28;20027;-60
2021/10/17 07:05:02;;;;;;;9.60;1.52;;;26.60;92.60;;;;;;5084015;28;20047;-56
2021/10/17 07:07:29;;;;;;;10.70;1.80;;;26.60;92.60;;;;;;5084867;28;20031;-56
2021/10/17 07:09:56;;;;;;;9.27;1.35;;;26.60;92.70;;;;;;5085148;28;20212;-54
2021/10/17 07:12:22;;;;;;;6.18;2.38;;;26.60;92.70;;;;;;5084813;28;20024;-58
2021/10/17 07:14:52;;;;;;;10.75;4.25;;;26.60;92.70;;;;;;5085168;28;20025;-57
2021/10/17 07:17:19;;;;;;;17.23;4.20;;;26.60;92.70;;;;;;5084352;28;20090;-59
2021/10/17 07:19:46;;;;;;;14.18;3.88;;;26.60;92.70;;;;;;5085052;28;20028;-58
2021/10/17 07:22:13;;;;;;;22.80;4.63;;;26.60;92.70;;;;;;5084525;28;20031;-57
2021/10/17 07:24:39;;;;;;;19.48;4.53;;;26.60;92.70;;;;;;5084805;28;20031;-55
2021/10/17 07:27:06;;;;;;;38.03;5.93;;;26.60;92.70;;;;;;5084544;28;20237;-57
2021/10/17 07:29:33;;;;;;;71.57;8.45;;;26.50;92.70;;;;;;5084776;28;20036;-58
2021/10/17 07:31:59;;;;;;;67.93;8.27;;;26.50;92.80;;;;;;5084320;28;20031;-57
2021/10/17 07:34:26;;;;;;;52.90;7.28;;;26.50;92.80;;;;;;5084919;28;20059;-57
2021/10/17 07:36:53;;;;;;;33.45;5.72;;;26.50;92.80;;;;;;5084293;28;20335;-58
2021/10/17 07:39:19;;;;;;;27.67;4.57;;;26.50;92.70;;;;;;5084127;28;20028;-56
2021/10/17 07:41:48;;;;;;;20.25;4.53;;;26.50;92.80;;;;;;5084317;28;20017;-58
2021/10/17 07:44:18;;;;;;;12.85;3.85;;;26.50;92.80;;;;;;5084445;28;20091;-56
2021/10/17 07:46:44;;;;;;;15.55;3.45;;;26.50;92.80;;;;;;5083976;28;20032;-57
2021/10/17 07:49:11;;;;;;;12.52;3.00;;;26.50;92.70;;;;;;5084371;28;20035;-55
2021/10/17 07:51:38;;;;;;;16.90;2.58;;;26.50;92.60;;;;;;5084158;28;20020;-58
2021/10/17 07:54:04;;;;;;;12.73;2.45;;;26.50;92.60;;;;;;5084163;28;20284;-57
2021/10/17 07:56:31;;;;;;;7.63;2.20;;;26.40;92.50;;;;;;5084281;28;20025;-57
2021/10/17 07:58:58;;;;;;;9.55;2.40;;;26.40;92.50;;;;;;5084232;28;20091;-58
2021/10/17 08:01:25;;;;;;;11.52;2.05;;;26.40;92.40;;;;;;5083969;28;20020;-58
2021/10/17 08:03:51;;;;;;;8.50;1.70;;;26.40;92.40;;;;;;5083918;28;20031;-58
2021/10/17 08:06:18;;;;;;;19.40;2.03;;;26.40;92.50;;;;;;5083329;28;20017;-55
2021/10/17 08:08:45;;;;;;;10.10;1.27;;;26.40;92.50;;;;;;5071929;28;20063;-52
2021/10/17 08:11:11;;;;;;;10.10;1.38;;;26.40;92.50;;;;;;5069289;28;20208;-55
2021/10/17 08:13:38;;;;;;;10.13;1.20;;;26.40;92.40;;;;;;5075403;28;20312;-56
2021/10/17 08:16:05;;;;;;;9.82;1.33;;;26.40;92.30;;;;;;5063816;28;20020;-56
2021/10/17 08:18:31;;;;;;;5.90;0.90;;;26.40;92.20;;;;;;5063600;28;20032;-56
2021/10/17 08:20:58;;;;;;;14.80;1.40;;;26.50;92.30;;;;;;5063410;28;20028;-54
2021/10/17 08:23:25;;;;;;;5.78;0.90;;;26.50;92.20;;;;;;5063723;28;20021;-54
2021/10/17 08:25:51;;;;;;;10.73;0.90;;;26.50;92.20;;;;;;5063566;28;20063;-55
2021/10/17 08:28:19;;;;;;;4.10;1.00;;;26.50;92.20;;;;;;5063717;28;20057;-56
2021/10/17 08:30:48;;;;;;;3.60;0.93;;;26.40;92.10;;;;;;5063712;28;20021;-55
2021/10/17 08:33:19;;;;;;;5.90;0.80;;;26.50;92.20;;;;;;5063657;28;20036;-55
2021/10/17 08:35:45;;;;;;;9.90;1.10;;;26.50;92.10;;;;;;5063291;28;20218;-57
2021/10/17 08:38:12;;;;;;;6.32;0.93;;;26.50;92.10;;;;;;5063509;28;20017;-56
2021/10/17 08:40:40;;;;;;;4.50;1.10;;;26.40;92.10;;;;;;5063495;28;20041;-56
2021/10/17 08:43:07;;;;;;;8.10;1.38;;;26.50;92.10;;;;;;5063482;28;20055;-55
2021/10/17 08:45:34;;;;;;;4.57;1.23;;;26.50;92.10;;;;;;5063407;28;20021;-51
2021/10/17 08:48:03;;;;;;;7.28;1.05;;;26.40;92.00;;;;;;5063390;28;20059;-54
2021/10/17 08:50:30;;;;;;;7.35;1.77;;;26.50;92.10;;;;;;5063084;28;20032;-56
2021/10/17 08:52:56;;;;;;;6.13;1.50;;;26.40;92.20;;;;;;5063344;28;20059;-56
2021/10/17 08:55:23;;;;;;;9.98;1.20;;;26.40;92.20;;;;;;5063461;28;20028;-55
2021/10/17 08:57:53;;;;;;;9.55;1.30;;;26.50;92.50;;;;;;5063344;28;20246;-55
2021/10/17 09:00:32;;;;;;;7.35;1.20;;;26.40;92.10;;;;;;5063156;28;20025;-56
2021/10/17 09:02:59;;;;;;;8.27;1.30;;;26.40;92.10;;;;;;5063256;28;20080;-55
2021/10/17 09:05:45;;;;;;;5.28;1.00;;;26.40;92.10;;;;;;5062917;28;20086;-55
2021/10/17 09:08:27;;;;;;;11.43;1.30;;;26.40;92.10;;;;;;5063299;28;20021;-56
2021/10/17 09:10:54;;;;;;;5.32;1.40;;;26.40;92.00;;;;;;5063382;28;20033;-56
2021/10/17 09:13:20;;;;;;;3.38;0.90;;;26.40;91.90;;;;;;5063432;28;20281;-56
2021/10/17 09:15:47;;;;;;;11.00;1.20;;;26.40;91.90;;;;;;5063254;28;20021;-57
2021/10/17 09:18:25;;;;;;;10.98;1.42;;;26.40;91.90;;;;;;5063079;28;20033;-57
2021/10/17 09:20:58;;;;;;;8.15;1.25;;;26.40;91.90;;;;;;5063055;28;20252;-56
2021/10/17 09:23:24;;;;;;;6.70;1.02;;;26.40;91.90;;;;;;5063214;28;20027;-55
2021/10/17 09:25:53;;;;;;;7.68;1.10;;;26.40;91.90;;;;;;5065642;28;20040;-56
2021/10/17 09:28:23;;;;;;;7.90;1.23;;;26.40;91.90;;;;;;5066544;28;20332;-57
2021/10/17 09:31:04;;;;;;;9.93;1.20;;;26.40;91.90;;;;;;5065707;28;20051;-55
2021/10/17 09:33:31;;;;;;;9.40;1.80;;;26.30;91.90;;;;;;5066815;28;20305;-55
2021/10/17 09:35:58;;;;;;;8.65;2.40;;;26.30;92.00;;;;;;5066716;28;20070;-55
2021/10/17 09:38:40;;;;;;;7.80;1.75;;;26.30;92.00;;;;;;5066447;28;20033;-55
2021/10/17 09:41:15;;;;;;;8.00;1.67;;;26.40;92.10;;;;;;5066475;28;20021;-56
2021/10/17 09:43:49;;;;;;;8.65;1.42;;;26.30;92.10;;;;;;5066450;28;20309;-57
2021/10/17 09:46:15;;;;;;;6.60;1.30;;;26.30;92.10;;;;;;5066504;28;20217;-54
2021/10/17 09:48:44;;;;;;;9.30;1.80;;;26.30;92.10;;;;;;5066459;28;20025;-58
2021/10/17 09:51:15;;;;;;;6.55;1.48;;;26.30;92.10;;;;;;5066251;28;20029;-55
2021/10/17 09:53:45;;;;;;;7.45;1.33;;;26.30;92.10;;;;;;5066382;28;20028;-55
2021/10/17 09:56:35;;;;;;;5.95;1.05;;;26.30;92.20;;;;;;5066072;28;20092;-55
2021/10/17 09:59:05;;;;;;;7.88;1.40;;;26.30;92.20;;;;;;5066391;28;20095;-57
2021/10/17 10:01:33;;;;;;;6.72;1.00;;;26.30;92.20;;;;;;5065986;28;20028;-57
2021/10/17 10:04:02;;;;;;;12.05;1.25;;;26.30;92.20;;;;;;5066292;28;20044;-58
2021/10/17 10:06:29;;;;;;;6.43;1.38;;;26.30;92.20;;;;;;5066079;28;20028;-54
2021/10/17 10:09:01;;;;;;;6.25;1.20;;;26.30;92.20;;;;;;5066117;28;20300;-53
2021/10/17 10:11:29;;;;;;;8.47;1.30;;;26.30;92.20;;;;;;5065969;28;20025;-57
2021/10/17 10:13:58;;;;;;;7.20;1.35;;;26.30;92.20;;;;;;5066119;28;20272;-56
2021/10/17 10:16:27;;;;;;;9.52;1.20;;;26.30;92.20;;;;;;5065759;28;20340;-54
2021/10/17 10:19:01;;;;;;;6.07;1.20;;;26.30;92.20;;;;;;5065983;28;20025;-57
2021/10/17 10:21:29;;;;;;;8.00;1.33;;;26.30;92.20;;;;;;5065643;28;20082;-57
2021/10/17 10:24:01;;;;;;;9.45;1.90;;;26.30;92.20;;;;;;5065981;28;20356;-59
2021/10/17 10:26:30;;;;;;;8.43;1.33;;;26.30;92.30;;;;;;5065586;28;20041;-58
2021/10/17 10:28:58;;;;;;;8.75;2.00;;;26.30;92.30;;;;;;5065691;28;20028;-55
2021/10/17 10:31:46;;;;;;;6.80;2.20;;;26.30;92.30;;;;;;5065768;28;20209;-56
2021/10/17 10:34:32;;;;;;;8.15;3.00;;;26.30;92.30;;;;;;5065736;28;20036;-58
2021/10/17 10:37:21;;;;;;;9.15;2.80;;;26.30;92.30;;;;;;5065472;28;20088;-55
2021/10/17 10:40:03;;;;;;;10.45;2.90;;;26.30;92.40;;;;;;5065692;28;20088;-58
2021/10/17 10:42:41;;;;;;;11.48;3.50;;;26.30;92.40;;;;;;5065299;28;20059;-54
2021/10/17 10:45:23;;;;;;;8.70;3.05;;;26.30;92.50;;;;;;5065811;28;20032;-56
2021/10/17 10:48:12;;;;;;;10.63;3.20;;;26.30;92.50;;;;;;5065124;28;20016;-56
2021/10/17 10:50:40;;;;;;;11.00;3.45;;;26.30;92.50;;;;;;5065065;28;20092;-60
2021/10/17 10:53:09;;;;;;;8.35;3.25;;;26.30;92.80;;;;;;5064862;28;20104;-56
2021/10/17 10:55:46;;;;;;;8.60;3.65;;;26.30;92.50;;;;;;5065198;28;20025;-58
2021/10/17 10:58:53;;;;;;;14.75;5.18;;;26.30;92.50;;;;;;5065121;28;20029;-57
2021/10/17 11:01:56;;;;;;;17.67;6.35;;;26.30;92.30;;;;;;5059451;28;20033;-56
2021/10/17 11:04:45;;;;;;;16.70;8.15;;;26.30;92.30;;;;;;5065249;28;20025;-56
2021/10/17 11:07:22;;;;;;;19.08;9.35;;;26.30;92.30;;;;;;5045838;28;20033;-55
2021/10/17 11:09:50;;;;;;;18.88;8.95;;;26.20;92.30;;;;;;5065223;28;20035;-54
2021/10/17 11:12:43;;;;;;;19.00;8.77;;;26.20;92.30;;;;;;5064963;28;20032;-56
2021/10/17 11:15:12;;;;;;;16.52;8.00;;;26.20;92.30;;;;;;5065132;28;20036;-60
2021/10/17 11:17:46;;;;;;;15.98;6.50;;;26.30;92.30;;;;;;5064578;28;20098;-54
2021/10/17 11:20:18;;;;;;;12.73;5.68;;;26.30;92.30;;;;;;5065474;28;20351;-56
2021/10/17 11:22:46;;;;;;;13.25;4.95;;;26.30;92.30;;;;;;5064845;28;20028;-57
2021/10/17 11:25:17;;;;;;;10.13;4.03;;;26.30;92.50;;;;;;5065119;28;20025;-58
2021/10/17 11:27:45;;;;;;;17.50;4.78;;;26.30;92.20;;;;;;5064506;28;20048;-55
2021/10/17 11:30:23;;;;;;;11.45;3.92;;;26.30;92.20;;;;;;5065029;28;20033;-56
2021/10/17 11:32:50;;;;;;;7.15;3.20;;;26.30;92.00;;;;;;5064612;28;20021;-55
2021/10/17 11:35:24;;;;;;;8.23;3.03;;;26.50;91.90;;;;;;5064378;28;20317;-58
2021/10/17 11:37:54;;;;;;;10.93;2.55;;;26.60;91.70;;;;;;5064156;28;20021;-54
2021/10/17 11:40:21;;;;;;;8.10;1.85;;;26.70;91.50;;;;;;5064192;28;20025;-56
2021/10/17 11:42:55;;;;;;;5.07;1.75;;;26.70;91.40;;;;;;5064312;28;20017;-56
2021/10/17 11:45:27;;;;;;;2.35;1.20;;;26.70;91.40;;;;;;5064272;28;20096;-55
2021/10/17 11:47:57;;;;;;;6.10;1.55;;;26.70;91.40;;;;;;5063638;28;20017;-55
2021/10/17 11:50:29;;;;;;;11.70;1.42;;;26.70;91.40;;;;;;5064343;28;20035;-56
2021/10/17 11:53:01;;;;;;;13.45;5.38;;;26.70;91.40;;;;;;5064057;28;20025;-56
2021/10/17 11:55:33;;;;;;;9.77;4.90;;;26.70;91.50;;;;;;5062931;28;20048;-61
2021/10/17 11:58:00;;;;;;;11.98;4.85;;;26.60;91.50;;;;;;5063919;28;20335;-58
2021/10/17 12:00:29;;;;;;;11.13;3.67;;;26.70;91.50;;;;;;5063857;28;20020;-54
2021/10/17 12:02:56;;;;;;;8.82;3.42;;;26.70;91.50;;;;;;5062671;28;20316;-51
2021/10/17 12:05:25;;;;;;;12.52;4.20;;;26.60;91.50;;;;;;5063953;28;20092;-56
2021/10/17 12:07:57;;;;;;;17.20;5.18;;;26.70;91.40;;;;;;5063681;28;20016;-58
2021/10/17 12:10:26;;;;;;;15.73;4.78;;;26.70;91.40;;;;;;5064141;28;20021;-57
2021/10/17 12:13:01;;;;;;;16.02;4.95;;;26.70;91.30;;;;;;5063901;28;20032;-60
2021/10/17 12:15:30;;;;;;;10.98;4.28;;;26.70;91.30;;;;;;5063755;28;20017;-55
2021/10/17 12:18:02;;;;;;;20.27;3.95;;;26.70;91.30;;;;;;5063876;28;20375;-59
2021/10/17 12:20:33;;;;;;;8.88;3.90;;;26.70;91.30;;;;;;5063661;28;20023;-59
2021/10/17 12:23:01;;;;;;;9.77;2.65;;;26.80;91.30;;;;;;5062570;28;20373;-56
2021/10/17 12:25:28;;;;;;;8.07;2.50;;;26.80;91.20;;;;;;5062532;28;20043;-58
2021/10/17 12:27:55;;;;;;;6.40;1.90;;;26.90;91.20;;;;;;5063393;28;20036;-54
2021/10/17 12:30:32;;;;;;;7.30;2.38;;;26.90;91.00;;;;;;5063793;28;20040;-59
2021/10/17 12:33:00;;;;;;;6.32;1.42;;;26.90;91.10;;;;;;5063307;28;20025;-55
2021/10/17 12:35:30;;;;;;;2.67;1.55;;;26.90;90.40;;;;;;5063571;28;20036;-56
2021/10/17 12:38:11;;;;;;;6.38;1.40;;;26.90;90.60;;;;;;5063524;28;20021;-56
2021/10/17 12:40:53;;;;;;;8.73;1.42;;;27.00;90.80;;;;;;5063538;28;20025;-57
2021/10/17 12:43:30;;;;;;;6.05;1.20;;;27.00;90.60;;;;;;5063658;28;20016;-57
2021/10/17 12:46:10;;;;;;;2.92;0.82;;;27.10;90.70;;;;;;5063665;28;20028;-63
2021/10/17 12:48:40;;;;;;;7.20;1.30;;;27.10;91.00;;;;;;5063650;28;20028;-58